Time;durP1;ratioP1;P1;durP2;ratioP2;P2;SDS_P1;SDS_P2;PMS_P1;PMS_P2;Temp;Humidity;BMP_temperature;BMP_pressure;BME280_temperature;BME280_humidity;BME280_pressure;Samples;Min_cycle;Max_cycle;Signal;HPM_P1;HPM_P2
2023/04/09 00:00:41;;;;;;;38.70;18.15;;;4.10;99.90;;;;;;5068903;28;20485;-51
2023/04/09 00:03:08;;;;;;;33.83;16.85;;;4.10;99.90;;;;;;5071246;28;20067;-51
2023/04/09 00:05:41;;;;;;;31.20;15.65;;;4.10;99.90;;;;;;5070787;28;20044;-49
2023/04/09 00:08:07;;;;;;;32.20;16.08;;;4.10;99.90;;;;;;5063697;28;20040;-52
2023/04/09 00:10:34;;;;;;;32.30;15.63;;;4.10;99.90;;;;;;5055991;28;20064;-50
2023/04/09 00:13:01;;;;;;;31.08;15.25;;;4.10;99.90;;;;;;5068919;28;20041;-50
2023/04/09 00:15:28;;;;;;;30.90;15.63;;;4.20;99.90;;;;;;5064025;28;20079;-50
2023/04/09 00:17:58;;;;;;;31.70;16.40;;;4.20;99.90;;;;;;5057283;28;20457;-50
2023/04/09 00:20:25;;;;;;;32.97;17.27;;;4.10;99.90;;;;;;5066233;28;20051;-49
2023/04/09 00:22:52;;;;;;;23.58;13.80;;;4.20;99.90;;;;;;5071195;28;20086;-49
2023/04/09 00:25:18;;;;;;;36.78;17.85;;;4.10;99.90;;;;;;5066489;28;20068;-50
2023/04/09 00:27:45;;;;;;;35.08;17.15;;;4.10;99.90;;;;;;5053319;28;20037;-50
2023/04/09 00:30:12;;;;;;;39.63;17.42;;;4.10;99.90;;;;;;5060314;28;20049;-50
2023/04/09 00:32:39;;;;;;;35.40;17.77;;;4.10;99.90;;;;;;5069403;28;20115;-50
2023/04/09 00:35:07;;;;;;;34.85;18.58;;;4.10;99.90;;;;;;5104793;22;20132;-51
2023/04/09 00:37:34;;;;;;;;;;;4.10;99.90;;;;;;5091160;28;20450;-49
2023/04/09 00:40:01;;;;;;;34.03;16.80;;;4.10;99.90;;;;;;5072291;28;20326;-49
2023/04/09 00:42:31;;;;;;;31.67;16.52;;;4.20;99.90;;;;;;5068697;28;20135;-51
2023/04/09 00:44:58;;;;;;;33.78;17.50;;;4.20;99.90;;;;;;5064345;28;20052;-49
2023/04/09 00:47:27;;;;;;;;;;;4.20;99.90;;;;;;5048720;28;20122;-49
2023/04/09 00:49:54;;;;;;;33.15;16.48;;;4.20;99.90;;;;;;5046073;28;20416;-49
2023/04/09 00:52:21;;;;;;;;;;;4.20;99.90;;;;;;5069753;28;20068;-49
2023/04/09 00:54:49;;;;;;;36.78;19.00;;;4.20;99.90;;;;;;5052535;28;19920;-49
2023/04/09 00:57:17;;;;;;;37.63;19.15;;;4.20;99.90;;;;;;5070596;28;20032;-49
2023/04/09 00:59:44;;;;;;;42.47;19.52;;;4.20;99.90;;;;;;5070370;28;20504;-52
2023/04/09 01:02:11;;;;;;;35.22;18.55;;;4.20;99.90;;;;;;5050794;28;20041;-49
2023/04/09 01:04:40;;;;;;;;;;;4.20;99.90;;;;;;5062141;28;20492;-53
2023/04/09 01:07:29;;;;;;;40.20;18.17;;;4.20;99.90;;;;;;5068022;28;19966;-50
2023/04/09 01:10:20;;;;;;;35.90;17.45;;;4.20;99.90;;;;;;5051128;28;20196;-49
2023/04/09 01:13:07;;;;;;;34.90;17.08;;;4.20;99.90;;;;;;5052049;28;20044;-50
2023/04/09 01:15:41;;;;;;;30.27;14.68;;;4.10;99.90;;;;;;5065330;28;20039;-49
2023/04/09 01:18:17;;;;;;;28.75;14.35;;;4.10;99.90;;;;;;5055946;28;20053;-49
2023/04/09 01:20:55;;;;;;;30.08;14.20;;;4.10;99.90;;;;;;5074595;28;20384;-48
2023/04/09 01:23:36;;;;;;;32.63;15.65;;;4.10;99.90;;;;;;5067665;28;20032;-49
2023/04/09 01:26:14;;;;;;;32.88;16.23;;;4.20;99.90;;;;;;5054933;28;20094;-49
2023/04/09 01:28:53;;;;;;;32.20;15.35;;;4.20;99.90;;;;;;5035415;28;20048;-50
2023/04/09 01:31:27;;;;;;;34.97;15.90;;;4.20;99.90;;;;;;5057070;28;20036;-50
2023/04/09 01:33:54;;;;;;;35.10;16.60;;;4.10;99.90;;;;;;5051583;28;20037;-50
2023/04/09 01:36:23;;;;;;;29.55;14.93;;;4.10;99.90;;;;;;5036322;28;20102;-50
2023/04/09 01:38:51;;;;;;;30.77;15.65;;;4.10;99.90;;;;;;5039361;28;20106;-48
2023/04/09 01:41:21;;;;;;;35.00;16.73;;;4.10;99.90;;;;;;5061410;28;20079;-49
2023/04/09 01:43:52;;;;;;;33.33;16.95;;;4.20;99.90;;;;;;5047870;28;20044;-49
2023/04/09 01:46:20;;;;;;;36.55;17.10;;;4.20;99.90;;;;;;5054182;28;20070;-49
2023/04/09 01:48:48;;;;;;;36.40;17.98;;;4.20;99.90;;;;;;5035286;28;20045;-49
2023/04/09 01:51:16;;;;;;;38.70;17.90;;;4.20;99.90;;;;;;5036130;28;20045;-49
2023/04/09 01:53:43;;;;;;;39.88;17.95;;;4.20;99.90;;;;;;5062149;28;20045;-49
2023/04/09 01:56:10;;;;;;;36.72;18.00;;;4.20;99.90;;;;;;5056140;28;20048;-50
2023/04/09 01:58:37;;;;;;;39.40;18.95;;;4.20;99.90;;;;;;5054600;28;20044;-48
2023/04/09 02:01:31;;;;;;;37.30;17.98;;;4.20;99.90;;;;;;5055789;28;20052;-51
2023/04/09 02:04:02;;;;;;;40.58;18.73;;;4.20;99.90;;;;;;5055287;28;20070;-52
2023/04/09 02:06:51;;;;;;;38.78;18.50;;;4.20;99.90;;;;;;5070419;28;20124;-49
2023/04/09 02:09:20;;;;;;;38.83;18.20;;;4.20;99.90;;;;;;5044056;28;20083;-49
2023/04/09 02:11:48;;;;;;;36.65;18.20;;;4.30;99.90;;;;;;5052589;28;20037;-52
2023/04/09 02:14:17;;;;;;;39.10;18.83;;;4.30;99.90;;;;;;5051186;28;20037;-48
2023/04/09 02:16:46;;;;;;;40.92;20.52;;;4.30;99.90;;;;;;5035511;28;20457;-49
2023/04/09 02:19:13;;;;;;;42.60;19.27;;;4.20;99.90;;;;;;5035010;28;20045;-49
2023/04/09 02:21:40;;;;;;;45.45;20.45;;;4.20;99.90;;;;;;5035597;28;20114;-51
2023/04/09 02:24:07;;;;;;;43.70;21.73;;;4.20;99.90;;;;;;5036822;28;20549;-49
2023/04/09 02:26:34;;;;;;;29.20;13.98;;;4.20;99.90;;;;;;5034520;28;20099;-51
2023/04/09 02:29:01;;;;;;;37.67;18.85;;;4.10;99.90;;;;;;5034949;28;20056;-48
2023/04/09 02:31:28;;;;;;;39.65;19.20;;;4.10;99.90;;;;;;5039768;28;20037;-50
2023/04/09 02:33:54;;;;;;;45.70;21.90;;;4.10;99.90;;;;;;5065113;28;20037;-52
2023/04/09 02:36:21;;;;;;;45.95;20.85;;;4.10;99.90;;;;;;5050192;28;20436;-48
2023/04/09 02:38:48;;;;;;;38.45;18.90;;;4.20;99.90;;;;;;5034998;28;20079;-50
2023/04/09 02:41:15;;;;;;;39.40;18.73;;;4.20;99.90;;;;;;5052103;28;20040;-48
2023/04/09 02:43:42;;;;;;;36.67;17.75;;;4.20;99.90;;;;;;5067166;28;20078;-48
2023/04/09 02:46:09;;;;;;;33.30;15.95;;;4.20;99.90;;;;;;5052370;28;20055;-52
2023/04/09 02:48:36;;;;;;;22.85;10.93;;;4.20;99.90;;;;;;5035261;28;20056;-49
2023/04/09 02:51:06;;;;;;;28.95;14.23;;;4.10;99.90;;;;;;5059543;28;20037;-49
2023/04/09 02:53:32;;;;;;;27.10;14.02;;;4.10;99.90;;;;;;5041092;28;20039;-50
2023/04/09 02:55:59;;;;;;;28.80;13.68;;;4.00;99.90;;;;;;5054493;28;20148;-48
2023/04/09 02:58:26;;;;;;;30.20;13.15;;;4.00;99.90;;;;;;5051789;28;20052;-49
2023/04/09 03:00:53;;;;;;;29.75;13.77;;;4.00;99.90;;;;;;5067223;28;20047;-48
2023/04/09 03:03:19;;;;;;;34.03;14.65;;;4.00;99.90;;;;;;5042755;28;20123;-50
2023/04/09 03:05:46;;;;;;;28.65;14.05;;;4.00;99.90;;;;;;5034632;28;20061;-50
2023/04/09 03:08:13;;;;;;;33.65;15.32;;;4.00;99.90;;;;;;5043126;28;20045;-49
2023/04/09 03:10:40;;;;;;;29.00;14.02;;;4.00;99.90;;;;;;5050853;28;20103;-49
2023/04/09 03:13:07;;;;;;;27.58;13.75;;;3.90;99.90;;;;;;5052467;28;20025;-49
2023/04/09 03:15:33;;;;;;;30.95;14.27;;;4.00;99.90;;;;;;5052010;28;20056;-50
2023/04/09 03:18:00;;;;;;;33.17;14.73;;;3.90;99.90;;;;;;5052581;28;20045;-49
2023/04/09 03:20:27;;;;;;;28.15;13.98;;;3.90;99.90;;;;;;5064925;28;20075;-52
2023/04/09 03:22:54;;;;;;;22.52;10.55;;;3.90;99.90;;;;;;5054610;28;20055;-48
2023/04/09 03:25:30;;;;;;;15.30;8.10;;;4.00;99.90;;;;;;5054581;28;20409;-51
2023/04/09 03:28:00;;;;;;;15.32;8.30;;;4.00;99.90;;;;;;5043745;28;20505;-52
2023/04/09 03:30:39;;;;;;;19.50;9.40;;;3.90;99.90;;;;;;5033962;28;20136;-50
2023/04/09 03:33:06;;;;;;;20.17;10.23;;;3.80;99.90;;;;;;5034236;28;20141;-49
2023/04/09 03:35:42;;;;;;;21.67;11.18;;;3.80;99.90;;;;;;5047885;28;20048;-49
2023/04/09 03:38:10;;;;;;;21.35;10.63;;;3.90;99.90;;;;;;5053553;28;20055;-50
2023/04/09 03:40:37;;;;;;;21.45;10.93;;;3.90;99.90;;;;;;5050527;28;20068;-50
2023/04/09 03:43:04;;;;;;;23.67;11.30;;;3.90;99.90;;;;;;5050882;28;20041;-49
2023/04/09 03:45:34;;;;;;;29.33;13.25;;;3.90;99.90;;;;;;5042040;28;20060;-51
2023/04/09 03:48:14;;;;;;;26.02;12.45;;;3.90;99.90;;;;;;5069148;28;20036;-49
2023/04/09 03:50:41;;;;;;;26.83;12.63;;;3.90;99.90;;;;;;5054075;28;20128;-48
2023/04/09 03:53:11;;;;;;;24.65;13.18;;;3.90;99.90;;;;;;5053981;28;20075;-49
2023/04/09 03:55:38;;;;;;;24.02;12.13;;;3.90;99.90;;;;;;5053452;28;20408;-50
2023/04/09 03:58:13;;;;;;;24.30;12.35;;;3.90;99.90;;;;;;5037142;28;20067;-48
2023/04/09 04:00:40;;;;;;;25.90;12.35;;;3.80;99.90;;;;;;5033434;28;20140;-49
2023/04/09 04:03:30;;;;;;;26.13;11.93;;;3.80;99.90;;;;;;5032610;28;20402;-49
2023/04/09 04:06:33;;;;;;;24.70;12.15;;;3.80;99.90;;;;;;5035686;28;20567;-52
2023/04/09 04:09:13;;;;;;;24.33;10.98;;;3.80;99.90;;;;;;5044139;28;20048;-50
2023/04/09 04:11:49;;;;;;;25.90;12.00;;;3.80;99.90;;;;;;5053073;28;20501;-50
2023/04/09 04:14:17;;;;;;;21.42;10.55;;;3.70;99.90;;;;;;5050903;28;20048;-50
2023/04/09 04:16:49;;;;;;;23.38;11.07;;;3.80;99.90;;;;;;5037619;28;20059;-49
2023/04/09 04:19:19;;;;;;;21.55;11.43;;;3.70;99.90;;;;;;5033000;28;20056;-49
2023/04/09 04:21:49;;;;;;;24.45;12.85;;;3.70;99.90;;;;;;5066797;28;20041;-51
2023/04/09 04:24:16;;;;;;;23.70;12.20;;;3.70;99.90;;;;;;5066316;28;20040;-49
2023/04/09 04:26:43;;;;;;;22.63;11.70;;;3.70;99.90;;;;;;5040522;28;20135;-50
2023/04/09 04:29:12;;;;;;;23.17;11.65;;;3.70;99.90;;;;;;5052982;28;20044;-51
2023/04/09 04:31:59;;;;;;;25.15;12.40;;;3.70;99.90;;;;;;5065710;28;20115;-50
2023/04/09 04:34:34;;;;;;;27.55;12.73;;;3.70;99.90;;;;;;5039194;28;20099;-50
2023/04/09 04:37:09;;;;;;;28.30;12.43;;;3.80;99.90;;;;;;5049460;28;20044;-52
2023/04/09 04:39:35;;;;;;;27.65;12.77;;;3.80;99.90;;;;;;5047453;28;20175;-49
2023/04/09 04:42:09;;;;;;;22.08;11.15;;;3.80;99.90;;;;;;5053134;28;20147;-50
2023/04/09 04:44:36;;;;;;;23.05;11.90;;;3.90;99.90;;;;;;5052225;28;20528;-50
2023/04/09 04:47:13;;;;;;;24.38;12.63;;;3.80;99.90;;;;;;5049303;28;20044;-52
2023/04/09 04:49:40;;;;;;;24.02;11.60;;;3.90;99.90;;;;;;5033079;28;20063;-52
2023/04/09 04:52:08;;;;;;;25.00;11.02;;;3.90;99.90;;;;;;5042807;28;20735;-49
2023/04/09 04:54:37;;;;;;;27.15;13.60;;;3.90;99.90;;;;;;5036965;28;20045;-51
2023/04/09 04:57:04;;;;;;;26.35;13.18;;;3.90;99.90;;;;;;5033846;28;20501;-50
2023/04/09 04:59:40;;;;;;;25.17;12.88;;;3.90;99.90;;;;;;5051644;28;20047;-52
2023/04/09 05:02:09;;;;;;;26.83;13.48;;;3.90;99.90;;;;;;5035722;28;20596;-51
2023/04/09 05:04:54;;;;;;;27.90;13.13;;;4.00;99.90;;;;;;5032743;28;20136;-49
2023/04/09 05:07:29;;;;;;;28.52;12.63;;;3.90;99.90;;;;;;5034676;28;20094;-49
2023/04/09 05:09:57;;;;;;;24.88;12.05;;;3.90;99.90;;;;;;5032525;28;20053;-50
2023/04/09 05:12:24;;;;;;;23.40;11.18;;;3.90;99.90;;;;;;5032444;28;20045;-50
2023/04/09 05:14:52;;;;;;;21.65;10.77;;;4.00;99.90;;;;;;5035176;28;20037;-49
2023/04/09 05:17:19;;;;;;;25.15;12.40;;;4.00;99.90;;;;;;5052742;28;20052;-51
2023/04/09 05:19:53;;;;;;;22.13;11.93;;;4.00;99.90;;;;;;5052688;28;20131;-49
2023/04/09 05:22:26;;;;;;;20.45;10.55;;;4.00;99.90;;;;;;5046667;28;20052;-50
2023/04/09 05:24:53;;;;;;;23.08;11.60;;;4.00;99.90;;;;;;5033309;28;20059;-51
2023/04/09 05:27:23;;;;;;;24.05;13.30;;;4.00;99.90;;;;;;5036049;28;20063;-50
2023/04/09 05:29:54;;;;;;;26.55;13.60;;;4.00;99.90;;;;;;5044292;28;20046;-51
2023/04/09 05:32:21;;;;;;;28.75;14.40;;;4.10;99.90;;;;;;5052049;28;20045;-49
2023/04/09 05:34:48;;;;;;;27.70;14.13;;;4.10;99.90;;;;;;5043854;28;20045;-51
2023/04/09 05:37:15;;;;;;;32.22;15.40;;;4.20;99.90;;;;;;5032597;28;20052;-50
2023/04/09 05:39:47;;;;;;;34.58;15.48;;;4.20;99.90;;;;;;5031950;28;20049;-49
2023/04/09 05:42:14;;;;;;;21.50;10.73;;;4.30;99.90;;;;;;5036007;28;20427;-50
2023/04/09 05:45:03;;;;;;;27.48;14.07;;;4.30;99.90;;;;;;5032793;28;20162;-50
2023/04/09 05:47:30;;;;;;;26.83;13.52;;;4.40;99.90;;;;;;5032602;28;20131;-49
2023/04/09 05:50:09;;;;;;;26.92;13.57;;;4.40;99.90;;;;;;5032179;28;20056;-55
2023/04/09 05:52:36;;;;;;;23.08;11.63;;;4.50;99.90;;;;;;5049184;28;20037;-50
2023/04/09 05:55:05;;;;;;;24.33;12.35;;;4.50;99.90;;;;;;5052682;28;20075;-52
2023/04/09 05:57:44;;;;;;;43.40;19.02;;;4.60;99.90;;;;;;5051515;28;20576;-53
2023/04/09 06:00:12;;;;;;;42.15;18.85;;;4.70;99.90;;;;;;5052020;28;20087;-51
2023/04/09 06:02:46;;;;;;;36.47;16.60;;;4.80;99.90;;;;;;5052067;28;20048;-49
2023/04/09 06:05:13;;;;;;;22.45;12.15;;;4.90;99.90;;;;;;5055755;28;20051;-53
2023/04/09 06:07:40;;;;;;;23.52;11.80;;;5.00;99.90;;;;;;5039614;28;20037;-50
2023/04/09 06:10:07;;;;;;;24.20;12.40;;;5.10;99.90;;;;;;5053585;28;20444;-51
2023/04/09 06:12:35;;;;;;;20.83;11.73;;;5.10;99.90;;;;;;5035946;28;20082;-49
2023/04/09 06:15:04;;;;;;;26.75;12.82;;;5.10;99.90;;;;;;5036783;28;20412;-50
2023/04/09 06:17:31;;;;;;;28.05;14.75;;;5.20;99.90;;;;;;5036033;28;20087;-51
2023/04/09 06:19:58;;;;;;;25.30;13.13;;;5.10;99.90;;;;;;5053201;28;20040;-52
2023/04/09 06:22:25;;;;;;;21.55;11.52;;;5.10;99.90;;;;;;5053777;28;20098;-49
2023/04/09 06:24:51;;;;;;;26.10;13.73;;;5.10;99.90;;;;;;5061876;28;20052;-50
2023/04/09 06:27:20;;;;;;;20.40;9.93;;;5.20;99.90;;;;;;5053789;28;20076;-51
2023/04/09 06:29:47;;;;;;;26.17;13.18;;;5.20;99.90;;;;;;5052684;28;20061;-49
2023/04/09 06:32:14;;;;;;;28.85;14.13;;;5.30;99.90;;;;;;5053517;28;20041;-51
2023/04/09 06:34:40;;;;;;;27.45;14.43;;;5.30;99.90;;;;;;5071208;22;20111;-48
2023/04/09 06:37:07;;;;;;;27.63;13.43;;;5.30;99.90;;;;;;5053808;28;20065;-51
2023/04/09 06:40:00;;;;;;;29.35;14.77;;;5.30;99.90;;;;;;5052420;28;20145;-51
2023/04/09 06:42:27;;;;;;;29.20;14.18;;;5.40;99.90;;;;;;5071664;28;20044;-50
2023/04/09 06:44:57;;;;;;;25.15;13.70;;;5.40;99.90;;;;;;5037194;28;20750;-50
2023/04/09 06:47:24;;;;;;;26.65;13.40;;;5.40;99.90;;;;;;5053444;28;20406;-49
2023/04/09 06:49:51;;;;;;;26.73;13.38;;;5.50;99.90;;;;;;5052662;28;20051;-49
2023/04/09 06:52:18;;;;;;;26.55;13.73;;;5.60;99.90;;;;;;5052974;28;20060;-50
2023/04/09 06:54:45;;;;;;;25.63;13.57;;;5.70;99.90;;;;;;5053116;28;20104;-51
2023/04/09 06:57:11;;;;;;;28.95;12.90;;;5.80;99.90;;;;;;5052924;28;20107;-51
2023/04/09 06:59:38;;;;;;;21.30;11.73;;;5.80;99.90;;;;;;5052265;28;20516;-50
2023/04/09 07:02:05;;;;;;;21.95;11.20;;;5.90;99.90;;;;;;5063038;28;20833;-53
2023/04/09 07:04:32;;;;;;;20.52;9.68;;;6.00;99.90;;;;;;5055166;28;20828;-51
2023/04/09 07:06:59;;;;;;;19.83;10.27;;;6.00;99.90;;;;;;5057070;28;20394;-53
2023/04/09 07:09:26;;;;;;;15.45;9.00;;;6.00;99.90;;;;;;5052064;28;20095;-51
2023/04/09 07:11:52;;;;;;;15.10;7.87;;;6.10;99.90;;;;;;5058549;28;20111;-49
2023/04/09 07:14:19;;;;;;;15.52;9.25;;;6.20;99.90;;;;;;5056063;28;20281;-51
2023/04/09 07:16:46;;;;;;;14.77;8.53;;;6.30;99.90;;;;;;5071333;28;20111;-51
2023/04/09 07:19:12;;;;;;;16.48;9.15;;;6.40;99.90;;;;;;5072209;28;20370;-51
2023/04/09 07:21:39;;;;;;;19.05;9.60;;;6.60;99.90;;;;;;5062805;28;20608;-50
2023/04/09 07:24:06;;;;;;;14.73;9.05;;;6.70;99.90;;;;;;5044742;28;20091;-50
2023/04/09 07:26:32;;;;;;;15.48;9.07;;;6.60;99.90;;;;;;5042219;28;20166;-50
2023/04/09 07:28:59;;;;;;;17.10;9.25;;;6.60;99.90;;;;;;5051689;28;20095;-51
2023/04/09 07:31:26;;;;;;;17.98;9.68;;;6.70;99.90;;;;;;5051235;28;20063;-51
2023/04/09 07:33:53;;;;;;;15.55;9.23;;;6.80;99.90;;;;;;5052128;28;20418;-50
2023/04/09 07:36:20;;;;;;;17.48;9.80;;;6.80;99.90;;;;;;5051437;28;20644;-50
2023/04/09 07:38:47;;;;;;;16.52;9.27;;;6.90;99.90;;;;;;5050719;28;20049;-49
2023/04/09 07:41:14;;;;;;;14.43;8.88;;;6.90;99.90;;;;;;5059318;28;20513;-50
2023/04/09 07:43:41;;;;;;;15.23;8.77;;;6.80;99.90;;;;;;5053401;28;20099;-52
2023/04/09 07:46:08;;;;;;;13.30;8.68;;;6.80;99.90;;;;;;5071182;28;20044;-51
2023/04/09 07:48:34;;;;;;;15.15;8.52;;;6.90;99.90;;;;;;5071561;28;20068;-48
2023/04/09 07:51:01;;;;;;;13.30;8.20;;;6.90;99.90;;;;;;5054666;28;20409;-51
2023/04/09 07:53:28;;;;;;;17.17;10.38;;;7.00;99.90;;;;;;5056584;28;20396;-50
2023/04/09 07:55:55;;;;;;;18.75;9.55;;;6.90;99.90;;;;;;5071258;28;20086;-52
2023/04/09 07:58:22;;;;;;;16.88;9.98;;;6.90;99.90;;;;;;5071369;28;20044;-52
2023/04/09 08:00:48;;;;;;;19.58;10.68;;;7.00;99.90;;;;;;5060026;28;20037;-50
2023/04/09 08:03:16;;;;;;;20.58;11.07;;;7.10;99.90;;;;;;5051506;28;20040;-50
2023/04/09 08:05:43;;;;;;;16.30;10.48;;;7.40;99.90;;;;;;5051265;28;20075;-52
2023/04/09 08:08:10;;;;;;;16.77;10.20;;;7.70;99.90;;;;;;5051315;28;20079;-52
2023/04/09 08:10:36;;;;;;;18.13;10.82;;;7.80;99.90;;;;;;5063017;28;20538;-50
2023/04/09 08:13:03;;;;;;;21.50;11.82;;;7.80;99.90;;;;;;5051384;28;20094;-49
2023/04/09 08:15:30;;;;;;;20.05;10.70;;;7.90;99.90;;;;;;5051024;28;20037;-50
2023/04/09 08:17:57;;;;;;;20.70;10.15;;;7.90;99.90;;;;;;5051424;28;20103;-50
2023/04/09 08:20:24;;;;;;;17.63;10.77;;;7.90;99.90;;;;;;5059021;28;20128;-50
2023/04/09 08:22:50;;;;;;;22.15;11.75;;;7.80;99.90;;;;;;5067419;28;20079;-51
2023/04/09 08:25:17;;;;;;;17.50;9.88;;;7.80;99.90;;;;;;5062989;28;20049;-50
2023/04/09 08:27:44;;;;;;;18.15;10.60;;;8.00;99.90;;;;;;5062836;28;20068;-52
2023/04/09 08:30:11;;;;;;;18.30;10.35;;;8.10;99.90;;;;;;5070589;28;20447;-51
2023/04/09 08:32:38;;;;;;;19.67;11.00;;;8.10;99.90;;;;;;5070079;28;20048;-50
2023/04/09 08:35:05;;;;;;;20.33;11.20;;;8.00;99.90;;;;;;5063794;28;20127;-50
2023/04/09 08:37:32;;;;;;;20.05;11.05;;;8.10;99.90;;;;;;5070554;28;20060;-53
2023/04/09 08:39:59;;;;;;;21.77;11.73;;;8.00;99.90;;;;;;5065819;28;20044;-50
2023/04/09 08:42:28;;;;;;;22.23;11.15;;;8.00;99.90;;;;;;5067570;28;20053;-50
2023/04/09 08:44:54;;;;;;;18.63;10.75;;;8.30;99.90;;;;;;5061696;28;20493;-50
2023/04/09 08:47:22;;;;;;;17.13;10.57;;;8.50;99.90;;;;;;5068720;28;20040;-50
2023/04/09 08:49:49;;;;;;;21.65;10.90;;;8.20;99.90;;;;;;5069742;28;20072;-50
2023/04/09 08:52:20;;;;;;;18.98;10.77;;;8.50;99.90;;;;;;5064002;28;20112;-53
2023/04/09 08:54:48;;;;;;;17.48;10.27;;;8.60;99.90;;;;;;5068800;28;20047;-50
2023/04/09 08:57:16;;;;;;;13.45;7.78;;;8.70;99.90;;;;;;5067065;28;20040;-49
2023/04/09 08:59:43;;;;;;;15.35;9.15;;;8.90;99.90;;;;;;5069946;28;20105;-50
2023/04/09 09:02:10;;;;;;;16.00;9.55;;;9.10;99.90;;;;;;5065749;28;20044;-50
2023/04/09 09:04:48;;;;;;;15.20;9.52;;;9.20;99.90;;;;;;5069659;28;20506;-50
2023/04/09 09:07:16;;;;;;;14.95;9.10;;;9.30;99.90;;;;;;5069909;28;20519;-51
2023/04/09 09:09:55;;;;;;;16.95;9.65;;;9.30;99.90;;;;;;5070226;28;20040;-52
2023/04/09 09:12:39;;;;;;;15.95;9.10;;;9.10;99.90;;;;;;5062258;28;20489;-50
2023/04/09 09:15:26;;;;;;;16.38;9.27;;;9.20;99.90;;;;;;5068760;28;20065;-50
2023/04/09 09:17:57;;;;;;;12.52;7.35;;;9.40;99.90;;;;;;5068918;28;20037;-52
2023/04/09 09:20:25;;;;;;;12.50;7.28;;;9.50;99.90;;;;;;5067646;28;20043;-52
2023/04/09 09:22:54;;;;;;;12.98;7.28;;;9.60;99.90;;;;;;5070193;28;20044;-50
2023/04/09 09:25:23;;;;;;;10.75;6.38;;;9.60;99.90;;;;;;5064257;28;20033;-51
2023/04/09 09:27:51;;;;;;;9.07;5.78;;;9.60;99.90;;;;;;5059701;28;20508;-49
2023/04/09 09:30:25;;;;;;;11.82;6.95;;;9.60;99.90;;;;;;5065440;28;20103;-50
2023/04/09 09:33:03;;;;;;;9.93;6.00;;;9.50;99.90;;;;;;5050675;28;20065;-50
2023/04/09 09:35:29;;;;;;;9.20;5.45;;;9.60;99.90;;;;;;5054501;28;20060;-50
2023/04/09 09:38:03;;;;;;;10.27;5.90;;;9.70;99.90;;;;;;5060569;28;20062;-52
2023/04/09 09:40:30;;;;;;;9.75;6.10;;;9.60;99.90;;;;;;5071481;28;20500;-52
2023/04/09 09:42:56;;;;;;;8.02;5.40;;;9.70;99.90;;;;;;5073785;28;20044;-50
2023/04/09 09:45:24;;;;;;;10.98;4.65;;;9.90;99.90;;;;;;5069708;28;20076;-50
2023/04/09 09:47:53;;;;;;;6.78;4.28;;;10.10;99.90;;;;;;5071477;28;20513;-52
2023/04/09 09:50:24;;;;;;;8.50;5.63;;;9.90;99.90;;;;;;5071182;28;20032;-51
2023/04/09 09:53:00;;;;;;;11.15;7.10;;;10.00;99.90;;;;;;5073860;28;20093;-51
2023/04/09 09:55:31;;;;;;;9.05;5.72;;;10.30;99.90;;;;;;5056165;28;20559;-50
2023/04/09 09:58:06;;;;;;;11.85;7.00;;;10.70;99.90;;;;;;5053698;28;20076;-49
2023/04/09 10:00:36;;;;;;;10.73;6.97;;;11.00;99.90;;;;;;5053528;28;20048;-51
2023/04/09 10:03:26;;;;;;;13.73;8.05;;;11.40;99.90;;;;;;5054005;28;20041;-50
2023/04/09 10:05:53;;;;;;;14.45;8.80;;;11.60;99.90;;;;;;5061660;28;20041;-50
2023/04/09 10:08:21;;;;;;;12.70;8.32;;;11.60;99.90;;;;;;5072861;28;20037;-50
2023/04/09 10:10:49;;;;;;;14.38;8.98;;;11.40;99.90;;;;;;5069704;28;20040;-52
2023/04/09 10:13:23;;;;;;;15.93;8.60;;;11.00;99.90;;;;;;5053789;28;20498;-53
2023/04/09 10:15:50;;;;;;;12.63;7.80;;;11.00;99.90;;;;;;5052985;28;20533;-50
2023/04/09 10:18:18;;;;;;;13.77;8.25;;;10.90;99.90;;;;;;5053137;28;20132;-50
2023/04/09 10:21:25;;;;;;;14.63;9.00;;;10.90;99.90;;;;;;5060543;28;20041;-51
2023/04/09 10:23:52;;;;;;;19.20;11.18;;;10.70;99.90;;;;;;5065569;28;20571;-52
2023/04/09 10:26:19;;;;;;;;;;;10.20;99.90;;;;;;5053664;28;20068;-52
2023/04/09 10:28:46;;;;;;;17.05;10.60;;;10.00;99.90;;;;;;5052822;28;19921;-50
2023/04/09 10:31:13;;;;;;;14.18;9.93;;;9.90;99.90;;;;;;5053375;28;20037;-51
2023/04/09 10:33:42;;;;;;;15.10;9.52;;;10.00;99.90;;;;;;5052796;28;20033;-49
2023/04/09 10:36:11;;;;;;;13.43;8.75;;;10.30;99.90;;;;;;5055646;28;20121;-54
2023/04/09 10:38:39;;;;;;;12.93;8.30;;;10.70;99.90;;;;;;5052502;28;20383;-54
2023/04/09 10:41:33;;;;;;;12.70;7.82;;;10.70;99.90;;;;;;5064706;28;20060;-54
2023/04/09 10:44:00;;;;;;;12.80;7.68;;;10.70;99.90;;;;;;5067664;28;20040;-52
2023/04/09 10:46:32;;;;;;;;;;;11.00;99.90;;;;;;5070527;28;20045;-51
2023/04/09 10:49:16;;;;;;;13.45;7.95;;;11.20;99.90;;;;;;5052464;28;19924;-52
2023/04/09 10:52:04;;;;;;;14.70;8.43;;;11.30;99.90;;;;;;5071685;28;20040;-51
2023/04/09 10:54:33;;;;;;;12.15;7.93;;;11.30;99.90;;;;;;5067897;28;20090;-51
2023/04/09 10:57:06;;;;;;;17.70;9.30;;;11.50;99.90;;;;;;5066148;28;20492;-50
2023/04/09 10:59:53;;;;;;;14.43;9.13;;;11.50;99.90;;;;;;5065586;28;20044;-53
2023/04/09 11:02:25;;;;;;;13.90;8.63;;;11.50;99.90;;;;;;5064560;28;20071;-51
2023/04/09 11:05:16;;;;;;;15.20;9.15;;;11.30;99.90;;;;;;5063422;28;20096;-52
2023/04/09 11:08:02;;;;;;;17.75;9.82;;;11.40;99.90;;;;;;5057933;28;20094;-53
2023/04/09 11:10:33;;;;;;;13.60;8.73;;;11.40;99.90;;;;;;5065484;28;20044;-53
2023/04/09 11:13:00;;;;;;;15.07;9.48;;;11.70;99.90;;;;;;5069224;28;20123;-50
2023/04/09 11:15:28;;;;;;;16.08;9.32;;;11.80;99.90;;;;;;5059807;28;20040;-50
2023/04/09 11:17:56;;;;;;;15.82;9.68;;;11.70;99.90;;;;;;5066004;28;20044;-51
2023/04/09 11:20:24;;;;;;;10.75;6.88;;;11.60;99.90;;;;;;5071721;28;20041;-50
2023/04/09 11:22:53;;;;;;;12.98;8.02;;;11.40;99.90;;;;;;5057477;28;20061;-50
2023/04/09 11:25:23;;;;;;;12.15;8.20;;;11.30;99.90;;;;;;5070297;28;20040;-52
2023/04/09 11:27:50;;;;;;;13.70;8.45;;;11.50;99.90;;;;;;5071993;28;20045;-52
2023/04/09 11:30:17;;;;;;;13.75;8.80;;;11.50;99.90;;;;;;5063524;28;20041;-52
2023/04/09 11:32:44;;;;;;;13.70;8.98;;;11.40;99.90;;;;;;5057171;28;20071;-50
2023/04/09 11:35:12;;;;;;;;;;;11.60;99.90;;;;;;5071319;28;20047;-52
2023/04/09 11:37:40;;;;;;;15.35;9.00;;;11.60;99.90;;;;;;5072170;28;19956;-50
2023/04/09 11:40:14;;;;;;;14.93;8.43;;;11.60;99.90;;;;;;5059234;28;20065;-52
2023/04/09 11:42:42;;;;;;;13.95;9.38;;;11.60;99.90;;;;;;5062339;28;20454;-54
2023/04/09 11:45:10;;;;;;;16.63;8.15;;;11.40;99.90;;;;;;5071411;28;20044;-50
2023/04/09 11:47:40;;;;;;;16.02;8.98;;;11.40;99.90;;;;;;5070788;28;20037;-49
2023/04/09 11:50:08;;;;;;;12.15;7.95;;;11.30;99.90;;;;;;5057711;28;20497;-50
2023/04/09 11:52:35;;;;;;;13.77;7.72;;;11.20;99.90;;;;;;5067098;28;20036;-53
2023/04/09 11:55:03;;;;;;;13.77;8.40;;;11.30;99.90;;;;;;5071702;28;20036;-52
2023/04/09 11:57:41;;;;;;;14.90;9.40;;;11.40;99.90;;;;;;5057429;28;20095;-53
2023/04/09 12:00:15;;;;;;;14.68;9.75;;;11.50;99.90;;;;;;5063524;28;20048;-51
2023/04/09 12:02:47;;;;;;;13.77;8.65;;;11.40;99.90;;;;;;5070920;28;20076;-49
2023/04/09 12:05:26;;;;;;;15.82;9.35;;;11.50;99.90;;;;;;5069973;28;20520;-50
2023/04/09 12:08:01;;;;;;;13.50;7.78;;;11.70;99.90;;;;;;5059589;28;20052;-50
2023/04/09 12:10:29;;;;;;;14.52;8.88;;;11.60;99.90;;;;;;5067147;28;20526;-52
2023/04/09 12:13:10;;;;;;;12.70;7.75;;;11.40;99.90;;;;;;5071486;28;20043;-52
2023/04/09 12:15:40;;;;;;;15.02;8.95;;;11.30;99.90;;;;;;5064173;28;20044;-55
2023/04/09 12:18:08;;;;;;;13.68;8.38;;;11.70;99.90;;;;;;5057167;28;20048;-50
2023/04/09 12:20:38;;;;;;;12.45;7.65;;;11.90;99.90;;;;;;5070374;28;20040;-54
2023/04/09 12:23:06;;;;;;;12.88;7.50;;;12.50;99.90;;;;;;5070720;28;20094;-50
2023/04/09 12:25:38;;;;;;;12.68;7.82;;;12.80;99.10;;;;;;5068465;28;20409;-51
2023/04/09 12:28:07;;;;;;;11.30;7.75;;;12.50;99.00;;;;;;5052878;28;20497;-52
2023/04/09 12:30:34;;;;;;;11.48;7.07;;;11.80;99.40;;;;;;5070941;28;20634;-53
2023/04/09 12:33:05;;;;;;;13.05;7.80;;;12.00;99.90;;;;;;5065970;28;20037;-50
2023/04/09 12:35:36;;;;;;;14.20;8.45;;;10.80;99.90;;;;;;5070580;28;20044;-50
2023/04/09 12:38:04;;;;;;;12.18;7.60;;;10.30;99.90;;;;;;5070484;28;20115;-52
2023/04/09 12:40:30;;;;;;;;;;;10.00;99.90;;;;;;5070770;28;20507;-52
2023/04/09 12:42:57;;;;;;;13.95;7.95;;;9.80;99.90;;;;;;5066702;28;19924;-50
2023/04/09 12:45:24;;;;;;;13.55;7.75;;;9.70;99.90;;;;;;5070331;28;20041;-50
2023/04/09 12:47:51;;;;;;;12.82;7.75;;;9.60;99.90;;;;;;5070440;28;20408;-51
2023/04/09 12:50:18;;;;;;;12.77;7.88;;;9.60;99.90;;;;;;5058720;28;20044;-51
2023/04/09 12:52:45;;;;;;;13.50;8.00;;;9.60;99.90;;;;;;5068396;28;20045;-50
2023/04/09 12:55:13;;;;;;;14.18;8.27;;;9.60;99.90;;;;;;5069372;28;20728;-51